Time;durP1;ratioP1;P1;durP2;ratioP2;P2;SDS_P1;SDS_P2;PMS_P1;PMS_P2;Temp;Humidity;BMP_temperature;BMP_pressure;BME280_temperature;BME280_humidity;BME280_pressure;Samples;Min_cycle;Max_cycle;Signal;HPM_P1;HPM_P2
2022/08/29 00:00:38;;;;;;;7.90;7.20;;;;;;;19.69;81.19;100230.21;84752;1319;22727;-73
2022/08/29 00:02:50;;;;;;;6.80;6.00;;;;;;;19.67;81.50;100228.05;84775;1326;22593;-74
2022/08/29 00:04:58;;;;;;;6.80;6.20;;;;;;;19.64;81.37;100223.02;84767;1327;22609;-71
2022/08/29 00:07:18;;;;;;;7.80;7.10;;;;;;;19.61;81.59;100224.95;84746;1326;22580;-68
2022/08/29 00:09:27;;;;;;;7.10;6.40;;;;;;;19.58;81.70;100224.11;84784;1326;22609;-69
2022/08/29 00:11:40;;;;;;;8.00;6.70;;;;;;;19.57;82.07;100219.97;84786;1327;22594;-70
2022/08/29 00:13:54;;;;;;;9.50;6.70;;;;;;;19.55;82.26;100214.10;84762;1327;22742;-71
2022/08/29 00:16:04;;;;;;;6.30;5.70;;;;;;;19.54;82.38;100210.77;84777;1327;25292;-73
2022/08/29 00:18:13;;;;;;;8.50;6.70;;;;;;;19.54;82.55;100207.80;84761;1327;24405;-73
2022/08/29 00:20:30;;;;;;;6.50;5.90;;;;;;;19.53;82.91;100200.61;84750;1327;22638;-70
2022/08/29 00:22:40;;;;;;;8.00;6.60;;;;;;;19.52;83.14;100197.34;84759;1319;22654;-70
2022/08/29 00:24:52;;;;;;;6.90;6.30;;;;;;;19.52;83.28;100198.40;84807;1327;22593;-71
2022/08/29 00:27:01;;;;;;;7.10;6.40;;;;;;;19.50;83.35;100200.30;84775;1329;22587;-73
2022/08/29 00:29:11;;;;;;;7.30;6.70;;;;;;;19.50;83.32;100208.43;84787;1327;25926;-71
2022/08/29 00:31:20;;;;;;;8.10;6.80;;;;;;;19.51;83.62;100208.73;84767;1326;22607;-72
2022/08/29 00:33:34;;;;;;;8.30;6.90;;;;;;;19.50;83.62;100207.39;84792;1328;25464;-71
2022/08/29 00:35:44;;;;;;;11.90;6.50;;;;;;;19.47;83.92;100203.39;84671;1330;22707;-69
2022/08/29 00:37:53;;;;;;;7.80;6.70;;;;;;;19.47;83.97;100206.27;84750;1327;24984;-72
2022/08/29 00:40:03;;;;;;;7.70;6.20;;;;;;;19.45;84.07;100206.75;84779;1327;24215;-73
2022/08/29 00:42:12;;;;;;;7.40;6.60;;;;;;;19.43;84.11;100204.23;84751;1327;24401;-74
2022/08/29 00:44:21;;;;;;;11.10;7.00;;;;;;;19.41;84.28;100208.45;84743;1326;25461;-73
2022/08/29 00:46:52;;;;;;;8.50;7.70;;;;;;;19.41;84.36;100207.02;84753;1326;22587;-73
2022/08/29 00:49:07;;;;;;;9.20;8.00;;;;;;;19.39;84.68;100206.00;84697;1329;22718;-71
2022/08/29 00:51:19;;;;;;;8.80;8.00;;;;;;;19.36;84.85;100205.13;84752;1325;22822;-71
2022/08/29 00:53:35;;;;;;;11.10;7.50;;;;;;;19.35;84.97;100202.16;84766;1327;22609;-71
2022/08/29 00:55:50;;;;;;;9.50;8.60;;;;;;;19.36;85.21;100201.94;84773;1326;25511;-72
2022/08/29 00:58:03;;;;;;;8.30;7.50;;;;;;;19.35;85.23;100196.19;84784;1326;25341;-72
2022/08/29 01:00:17;;;;;;;8.20;7.40;;;;;;;19.33;85.34;100192.78;84795;1327;22584;-74
2022/08/29 01:02:32;;;;;;;9.00;8.10;;;;;;;19.31;85.24;100191.55;84738;1327;22588;-72
2022/08/29 01:04:45;;;;;;;7.60;6.90;;;;;;;19.28;85.44;100192.09;84762;1328;22606;-71
2022/08/29 01:06:56;;;;;;;8.00;7.30;;;;;;;19.26;85.48;100193.37;84777;1327;24257;-69
2022/08/29 01:09:05;;;;;;;9.50;7.60;;;;;;;19.26;85.67;100187.89;84758;1330;22619;-71
2022/08/29 01:13:56;;;;;;;10.10;7.00;;;;;;;19.21;85.89;100186.61;84552;1331;25330;-71
2022/08/29 01:16:07;;;;;;;9.00;8.10;;;;;;;19.19;86.04;100188.41;84749;1327;25954;-69
2022/08/29 01:18:20;;;;;;;8.60;7.70;;;;;;;19.18;86.18;100182.27;84746;1330;24041;-70
2022/08/29 01:20:39;;;;;;;9.00;8.10;;;;;;;19.18;86.19;100185.13;84749;1330;24267;-69
2022/08/29 01:22:59;;;;;;;9.10;8.20;;;;;;;19.17;86.41;100186.12;84762;1327;22596;-70
2022/08/29 01:25:11;;;;;;;8.30;7.50;;;;;;;19.15;86.58;100185.52;84784;1328;22580;-70
2022/08/29 01:27:21;;;;;;;9.10;8.20;;;;;;;19.16;86.75;100188.08;84777;1327;25428;-71
2022/08/29 01:29:33;;;;;;;8.90;7.90;;;;;;;19.18;86.87;100189.89;84777;1326;23347;-73
2022/08/29 01:31:46;;;;;;;9.70;8.00;;;;;;;19.20;87.12;100190.63;84761;1326;22573;-74
2022/08/29 01:33:57;;;;;;;9.60;8.80;;;;;;;19.21;87.02;100193.94;84774;1327;22589;-71
2022/08/29 01:36:20;;;;;;;9.60;7.80;;;;;;;19.22;87.01;100191.72;84770;1326;24213;-71
2022/08/29 01:38:31;;;;;;;9.20;8.20;;;;;;;19.23;87.27;100193.42;84756;1327;25424;-72
2022/08/29 01:40:40;;;;;;;9.60;8.40;;;;;;;19.22;87.16;100193.69;84766;1327;22586;-74
2022/08/29 01:42:53;;;;;;;10.70;8.70;;;;;;;19.20;87.20;100191.31;84738;1327;22607;-72
2022/08/29 01:45:03;;;;;;;12.60;8.40;;;;;;;19.19;87.23;100188.77;84776;1318;22566;-72
2022/08/29 01:47:11;;;;;;;;;;;;;;;19.18;87.31;100189.52;84794;1327;22749;-72
2022/08/29 01:49:21;;;;;;;9.80;8.80;;;;;;;19.15;87.25;100194.24;84769;1328;22834;-72
2022/08/29 01:51:33;;;;;;;;;;;;;;;19.11;87.30;100194.69;84774;1324;22577;-71
2022/08/29 01:53:43;;;;;;;10.90;9.30;;;;;;;19.07;87.55;100193.87;84826;1327;22574;-70
2022/08/29 01:55:52;;;;;;;9.60;8.70;;;;;;;19.06;87.45;100196.80;84763;1325;22629;-70
2022/08/29 01:58:02;;;;;;;10.10;8.30;;;;;;;19.05;87.54;100201.85;84774;1327;22811;-71
2022/08/29 02:00:15;;;;;;;11.00;9.90;;;;;;;19.03;87.61;100201.11;84761;1327;22598;-71
2022/08/29 02:02:26;;;;;;;13.30;10.40;;;;;;;19.03;88.05;100204.46;84771;1326;22596;-71
2022/08/29 02:04:35;;;;;;;13.10;11.40;;;;;;;19.06;88.27;100210.75;84769;1327;23535;-73
2022/08/29 02:06:46;;;;;;;16.10;13.00;;;;;;;19.10;88.42;100208.88;84752;1327;22826;-71
2022/08/29 02:08:55;;;;;;;21.30;13.40;;;;;;;19.13;88.62;100208.11;84774;1331;24084;-71
2022/08/29 02:11:08;;;;;;;18.20;14.80;;;;;;;19.17;88.76;100208.17;84753;1327;22593;-71
2022/08/29 02:13:17;;;;;;;17.90;15.90;;;;;;;19.20;88.82;100205.98;84768;1327;22692;-71
2022/08/29 02:15:27;;;;;;;18.90;16.20;;;;;;;19.23;88.98;100202.91;84759;1329;23910;-71
2022/08/29 02:17:37;;;;;;;24.10;18.90;;;;;;;19.27;89.07;100203.56;84765;1325;22606;-71
2022/08/29 02:19:46;;;;;;;22.40;18.50;;;;;;;19.31;89.25;100203.61;84779;1327;22654;-73
2022/08/29 02:21:57;;;;;;;21.00;18.00;;;;;;;19.34;89.34;100208.48;84740;1327;24245;-72
2022/08/29 02:24:06;;;;;;;20.10;17.60;;;;;;;19.38;89.35;100206.78;84706;1332;22615;-70
2022/08/29 02:26:15;;;;;;;22.40;16.40;;;;;;;19.41;89.25;100212.55;84741;1327;22606;-71
2022/08/29 02:28:25;;;;;;;29.10;19.90;;;;;;;19.44;89.43;100214.62;84658;1333;23136;-72
2022/08/29 02:30:37;;;;;;;22.60;18.30;;;;;;;19.46;89.37;100214.76;84767;1330;22584;-72
2022/08/29 02:32:46;;;;;;;22.10;19.10;;;;;;;19.50;89.45;100215.84;84773;1327;22595;-74
2022/08/29 02:34:58;;;;;;;23.20;19.40;;;;;;;19.51;89.35;100216.30;84788;1326;24246;-71
2022/08/29 02:37:07;;;;;;;23.70;19.50;;;;;;;19.53;89.32;100220.77;84769;1326;25043;-70
2022/08/29 02:39:18;;;;;;;23.30;19.60;;;;;;;19.55;89.38;100224.49;84777;1328;25323;-73
2022/08/29 02:41:27;;;;;;;23.30;20.00;;;;;;;19.57;89.33;100224.17;84778;1326;22601;-73
2022/08/29 02:43:41;;;;;;;23.90;21.20;;;;;;;19.59;89.38;100226.66;84706;1332;24235;-71
2022/08/29 02:45:50;;;;;;;24.10;21.30;;;;;;;19.61;89.20;100229.94;84763;1326;25292;-72
2022/08/29 02:47:59;;;;;;;34.20;25.10;;;;;;;19.63;89.25;100230.11;84784;1330;22579;-74
2022/08/29 02:50:10;;;;;;;32.20;25.40;;;;;;;19.64;89.19;100232.36;84700;1330;22670;-71
2022/08/29 02:52:20;;;;;;;31.70;26.20;;;;;;;19.64;89.23;100230.38;84782;1327;25540;-73
2022/08/29 02:54:30;;;;;;;30.30;25.40;;;;;;;19.65;89.39;100234.95;84776;1330;22587;-72
2022/08/29 02:56:43;;;;;;;27.60;24.00;;;;;;;19.65;89.42;100235.83;84779;1326;25439;-73
2022/08/29 02:58:53;;;;;;;28.50;25.20;;;;;;;19.65;89.43;100236.00;84766;1327;25964;-71
2022/08/29 03:01:02;;;;;;;32.80;27.50;;;;;;;19.67;89.53;100237.77;84765;1326;24246;-71
2022/08/29 03:03:11;;;;;;;33.30;27.10;;;;;;;19.69;89.52;100238.67;84649;1327;24272;-69
2022/08/29 03:05:33;;;;;;;31.40;27.40;;;;;;;19.70;89.51;100237.17;84711;1330;22589;-73
2022/08/29 03:07:42;;;;;;;29.10;25.20;;;;;;;19.71;89.60;100234.16;84706;1325;22646;-71
2022/08/29 03:09:50;;;;;;;31.20;24.90;;;;;;;19.71;89.58;100231.84;84786;1331;22586;-70
2022/08/29 03:11:59;;;;;;;26.70;23.80;;;;;;;19.71;89.69;100234.79;84734;1326;22597;-71
2022/08/29 03:14:11;;;;;;;27.10;22.00;;;;;;;19.72;89.67;100232.05;84750;1327;25296;-73
2022/08/29 03:16:19;;;;;;;25.90;21.90;;;;;;;19.73;89.67;100234.33;84751;1324;25979;-73
2022/08/29 03:18:28;;;;;;;26.70;22.70;;;;;;;19.74;89.70;100234.58;84766;1327;24255;-72
2022/08/29 03:20:40;;;;;;;26.30;21.00;;;;;;;19.75;89.64;100233.60;84767;1329;22584;-71
2022/08/29 03:22:51;;;;;;;29.00;20.70;;;;;;;19.76;89.57;100237.26;84791;1327;25393;-71
2022/08/29 03:25:01;;;;;;;21.60;19.40;;;;;;;19.77;89.67;100240.14;84770;1330;22707;-71
2022/08/29 03:27:13;;;;;;;25.30;19.70;;;;;;;19.79;89.71;100241.13;84710;1330;22602;-71
2022/08/29 03:29:22;;;;;;;26.40;19.20;;;;;;;19.79;89.86;100241.61;84745;1327;22584;-71
2022/08/29 03:31:35;;;;;;;28.50;20.20;;;;;;;19.79;89.74;100243.02;84766;1329;22586;-71
2022/08/29 03:33:48;;;;;;;23.90;18.40;;;;;;;19.80;89.90;100245.09;84702;1329;25326;-70
2022/08/29 03:35:59;;;;;;;20.20;18.10;;;;;;;19.79;89.81;100243.91;84646;1332;22591;-70
2022/08/29 03:38:08;;;;;;;20.10;17.80;;;;;;;19.79;89.96;100249.95;84696;1331;24295;-69
2022/08/29 03:40:18;;;;;;;18.60;16.00;;;;;;;19.80;89.94;100253.42;84772;1328;22590;-69
2022/08/29 03:42:27;;;;;;;19.60;16.90;;;;;;;19.81;90.05;100252.27;84388;1327;506870;-71
2022/08/29 03:44:38;;;;;;;20.80;18.30;;;;;;;19.82;90.05;100258.73;84768;1326;22702;-73
2022/08/29 03:46:49;;;;;;;19.80;16.50;;;;;;;19.83;90.04;100259.52;84756;1327;22605;-74
2022/08/29 03:48:59;;;;;;;19.60;15.30;;;;;;;19.83;90.05;100260.98;84743;1326;22587;-71
2022/08/29 03:51:07;;;;;;;16.90;15.10;;;;;;;19.84;90.21;100262.99;84654;1328;22853;-71
2022/08/29 03:53:18;;;;;;;18.30;15.20;;;;;;;19.85;90.28;100267.52;84598;1330;22863;-69
2022/08/29 03:55:26;;;;;;;15.50;14.00;;;;;;;19.86;90.26;100267.64;84757;1328;22602;-72
2022/08/29 03:57:38;;;;;;;18.10;14.70;;;;;;;19.86;90.20;100269.58;84744;1330;25435;-71
2022/08/29 03:59:47;;;;;;;15.60;13.60;;;;;;;19.86;90.20;100271.34;84742;1327;22609;-73
2022/08/29 04:01:59;;;;;;;13.90;12.40;;;;;;;19.87;90.32;100273.75;84691;1329;22594;-71
2022/08/29 04:05:05;;;;;;;15.60;13.80;;;;;;;19.88;90.23;100274.90;84706;1332;22607;-72
2022/08/29 04:06:37;;;;;;;14.30;13.00;;;;;;;19.88;90.25;100277.59;84699;1329;22650;-72
2022/08/29 04:08:50;;;;;;;14.90;13.50;;;;;;;19.88;90.20;100278.09;84755;1321;22581;-74
2022/08/29 04:11:02;;;;;;;15.10;13.50;;;;;;;19.88;90.13;100277.16;84764;1326;23963;-74
2022/08/29 04:13:11;;;;;;;16.50;13.20;;;;;;;19.89;90.26;100277.81;84706;1329;22595;-74
2022/08/29 04:15:25;;;;;;;16.30;14.30;;;;;;;19.89;90.27;100279.76;84692;1330;22778;-70
2022/08/29 04:17:42;;;;;;;16.00;13.40;;;;;;;19.89;90.22;100282.79;84748;1327;22818;-70
2022/08/29 04:19:51;;;;;;;18.10;13.80;;;;;;;19.89;90.21;100277.11;84786;1331;22612;-71
2022/08/29 04:22:01;;;;;;;16.50;14.60;;;;;;;19.91;90.16;100283.39;84711;1328;23977;-73
2022/08/29 04:24:11;;;;;;;16.00;13.20;;;;;;;19.91;90.07;100283.52;84767;1327;23942;-71
2022/08/29 04:26:19;;;;;;;;;;;;;;;19.91;90.11;100286.51;84778;1326;22573;-71
2022/08/29 04:28:27;;;;;;;17.90;14.40;;;;;;;19.88;90.21;100290.16;84782;1327;22625;-69
2022/08/29 04:30:38;;;;;;;18.60;14.70;;;;;;;19.87;90.18;100290.55;84760;1327;22627;-70
2022/08/29 04:32:50;;;;;;;15.90;13.60;;;;;;;19.88;90.36;100291.55;84692;1329;22621;-70
2022/08/29 04:35:00;;;;;;;16.70;13.20;;;;;;;19.89;90.27;100296.08;84611;1330;22610;-73
2022/08/29 04:37:09;;;;;;;15.30;13.30;;;;;;;19.90;90.27;100298.30;84593;1330;22710;-74
2022/08/29 04:39:19;;;;;;;17.50;12.90;;;;;;;19.90;90.16;100296.92;84742;1328;22696;-71
2022/08/29 04:41:31;;;;;;;13.60;12.10;;;;;;;19.90;90.14;100298.16;84713;1326;22943;-71
2022/08/29 04:43:40;;;;;;;11.40;10.20;;;;;;;19.90;90.17;100294.24;84734;1325;24309;-72
2022/08/29 04:45:56;;;;;;;11.50;10.40;;;;;;;19.90;90.13;100299.70;84757;1327;22580;-73
2022/08/29 04:48:05;;;;;;;10.80;9.80;;;;;;;19.91;89.99;100298.27;84736;1330;22619;-71
2022/08/29 04:50:17;;;;;;;;;;;;;;;19.91;90.00;100300.53;84785;1322;22580;-71
2022/08/29 04:52:26;;;;;;;10.80;8.30;;;;;;;19.89;90.17;100300.88;84766;1327;22596;-69
2022/08/29 04:54:42;;;;;;;9.10;8.10;;;;;;;19.91;90.03;100303.23;84675;1330;24296;-70
2022/08/29 04:56:55;;;;;;;7.40;6.60;;;;;;;19.90;89.72;100308.06;84787;1327;25429;-70
2022/08/29 04:59:04;;;;;;;6.70;6.00;;;;;;;19.89;89.59;100306.14;84768;1327;22606;-71
2022/08/29 05:01:23;;;;;;;6.60;6.00;;;;;;;19.90;89.59;100309.66;84684;1330;22602;-73
2022/08/29 05:03:32;;;;;;;5.50;4.90;;;;;;;19.90;89.46;100310.55;84774;1327;24279;-71
2022/08/29 05:05:44;;;;;;;5.20;4.80;;;;;;;19.89;89.36;100314.50;84763;1325;22574;-73
2022/08/29 05:07:54;;;;;;;4.10;3.80;;;;;;;19.87;89.23;100319.08;84747;1327;23936;-73
2022/08/29 05:10:13;;;;;;;4.10;3.40;;;;;;;19.85;89.15;100318.33;84799;1328;22849;-70
2022/08/29 05:12:22;;;;;;;3.70;3.40;;;;;;;19.81;88.90;100322.71;84787;1331;22604;-69
2022/08/29 05:14:31;;;;;;;5.30;3.40;;;;;;;19.81;89.06;100323.27;84770;1322;25515;-70
2022/08/29 05:16:44;;;;;;;4.00;3.70;;;;;;;19.80;88.98;100325.96;84777;1327;25456;-70
2022/08/29 05:18:54;;;;;;;3.70;3.40;;;;;;;19.79;89.08;100324.25;84772;1327;25432;-71
2022/08/29 05:21:05;;;;;;;4.60;2.90;;;;;;;19.82;89.07;100326.90;84762;1326;23969;-73
2022/08/29 05:23:23;;;;;;;3.40;3.10;;;;;;;19.82;88.89;100328.30;84627;1321;22731;-72
2022/08/29 05:25:35;;;;;;;3.60;3.10;;;;;;;19.81;88.83;100329.23;84738;1328;22603;-72
2022/08/29 05:27:44;;;;;;;3.80;3.20;;;;;;;19.83;88.86;100329.98;84766;1327;22848;-72
2022/08/29 05:29:54;;;;;;;3.40;2.80;;;;;;;19.84;88.88;100330.46;84759;1327;22840;-70
2022/08/29 05:32:05;;;;;;;5.40;3.00;;;;;;;19.84;88.77;100328.14;84760;1327;22704;-70
2022/08/29 05:34:17;;;;;;;3.20;2.90;;;;;;;19.83;88.65;100330.32;84763;1324;25307;-71
2022/08/29 05:36:26;;;;;;;3.80;3.40;;;;;;;19.83;88.60;100328.42;84766;1327;22658;-72
2022/08/29 05:38:35;;;;;;;3.20;2.90;;;;;;;19.83;88.40;100330.17;84731;1327;22622;-71
2022/08/29 05:40:45;;;;;;;3.20;3.00;;;;;;;19.81;88.21;100331.77;84693;1324;22730;-72
2022/08/29 05:43:05;;;;;;;3.70;3.40;;;;;;;19.80;88.44;100334.10;84782;1324;22616;-73
2022/08/29 05:45:17;;;;;;;5.10;4.00;;;;;;;19.81;88.40;100338.14;84683;1330;24272;-69
2022/08/29 05:47:27;;;;;;;7.20;3.40;;;;;;;19.80;88.20;100336.55;84773;1331;22613;-71
2022/08/29 05:49:37;;;;;;;;;;;;;;;19.81;88.28;100340.59;84817;1324;22869;-73
2022/08/29 05:51:46;;;;;;;4.10;3.70;;;;;;;19.80;88.45;100344.55;84838;1328;22873;-72
2022/08/29 05:54:04;;;;;;;4.90;4.40;;;;;;;19.84;88.59;100350.95;84794;1327;22590;-72
2022/08/29 05:56:24;;;;;;;4.40;4.00;;;;;;;19.89;88.34;100348.50;84684;1331;22580;-73
2022/08/29 05:58:36;;;;;;;4.50;4.10;;;;;;;19.92;88.60;100348.42;84738;1330;26592;-73
2022/08/29 06:00:46;;;;;;;5.90;4.70;;;;;;;19.97;88.41;100350.53;84753;1327;22596;-73
2022/08/29 06:02:55;;;;;;;5.50;3.90;;;;;;;20.02;88.25;100350.69;84757;1324;22806;-72
2022/08/29 06:05:07;;;;;;;4.90;4.10;;;;;;;20.06;88.18;100347.52;84756;1327;22595;-71
2022/08/29 06:07:18;;;;;;;4.80;4.40;;;;;;;20.07;88.02;100347.40;84732;1326;22887;-71
2022/08/29 06:09:27;;;;;;;4.70;4.30;;;;;;;20.07;87.99;100350.05;84775;1327;22680;-72
2022/08/29 06:11:38;;;;;;;6.30;4.70;;;;;;;20.03;87.50;100355.39;84755;1329;22690;-71
2022/08/29 06:13:47;;;;;;;5.20;4.70;;;;;;;20.00;87.55;100357.01;84731;1325;24213;-72
2022/08/29 06:15:56;;;;;;;5.30;4.80;;;;;;;20.01;87.72;100359.04;84750;1327;22607;-73
2022/08/29 06:18:05;;;;;;;5.20;4.70;;;;;;;20.03;87.84;100359.56;84718;1325;23017;-73
2022/08/29 06:20:22;;;;;;;5.80;4.70;;;;;;;20.08;88.01;100361.52;84780;1326;22561;-74
2022/08/29 06:22:32;;;;;;;6.90;5.30;;;;;;;20.16;88.13;100362.00;84645;1328;25285;-73
2022/08/29 06:24:41;;;;;;;5.70;5.20;;;;;;;20.24;88.30;100365.10;84756;1326;25653;-72
2022/08/29 06:26:51;;;;;;;8.50;5.40;;;;;;;20.30;88.24;100366.16;84769;1329;24330;-72
2022/08/29 06:29:00;;;;;;;8.40;5.80;;;;;;;20.34;87.98;100369.40;84766;1328;22808;-72
2022/08/29 06:31:14;;;;;;;6.50;5.90;;;;;;;20.38;87.89;100375.65;84781;1326;22567;-72
2022/08/29 06:33:31;;;;;;;5.90;5.30;;;;;;;20.42;87.84;100377.66;84785;1326;22559;-71
2022/08/29 06:35:41;;;;;;;7.80;5.70;;;;;;;20.45;87.86;100378.60;84774;1326;22672;-71
2022/08/29 06:37:55;;;;;;;6.50;5.70;;;;;;;20.51;87.89;100378.75;84763;1331;22621;-71
2022/08/29 06:40:13;;;;;;;6.50;5.80;;;;;;;20.58;87.78;100382.41;84786;1328;22806;-72
2022/08/29 06:42:24;;;;;;;7.10;6.40;;;;;;;20.63;87.43;100382.58;84775;1327;22610;-73
2022/08/29 06:44:35;;;;;;;7.90;6.80;;;;;;;20.68;87.36;100388.20;84741;1328;22586;-72
2022/08/29 06:46:48;;;;;;;5.90;5.40;;;;;;;20.68;86.88;100388.52;84689;1330;22591;-73
2022/08/29 06:48:57;;;;;;;7.50;6.70;;;;;;;20.64;86.36;100394.14;84707;1328;22613;-72
2022/08/29 06:51:09;;;;;;;7.40;6.70;;;;;;;20.60;86.33;100396.39;84766;1326;22664;-72
2022/08/29 06:53:19;;;;;;;7.10;6.50;;;;;;;20.59;86.36;100405.40;84751;1327;25603;-74
2022/08/29 06:55:28;;;;;;;7.60;6.90;;;;;;;20.58;86.33;100403.67;84751;1327;22601;-72
2022/08/29 06:57:41;;;;;;;7.20;6.50;;;;;;;20.55;86.27;100407.77;84731;1322;22656;-72
2022/08/29 06:59:52;;;;;;;7.20;6.60;;;;;;;20.53;86.37;100407.60;84754;1326;22866;-71
2022/08/29 07:02:01;;;;;;;8.40;6.80;;;;;;;20.53;86.46;100409.02;84736;1327;25253;-70
2022/08/29 07:04:13;;;;;;;11.40;7.50;;;;;;;20.50;86.12;100411.03;84761;1327;22649;-70
2022/08/29 07:06:25;;;;;;;7.70;6.90;;;;;;;20.48;86.27;100411.77;84766;1327;22600;-71
2022/08/29 07:08:34;;;;;;;7.70;6.90;;;;;;;20.47;86.42;100418.90;84688;1330;24235;-69
2022/08/29 07:10:47;;;;;;;7.60;7.00;;;;;;;20.48;86.70;100415.79;84752;1327;22747;-69
2022/08/29 07:13:00;;;;;;;8.20;7.00;;;;;;;20.49;86.67;100417.86;84763;1327;22705;-67
2022/08/29 07:15:10;;;;;;;11.10;7.00;;;;;;;20.47;86.50;100420.63;84722;1330;22651;-73
2022/08/29 07:17:19;;;;;;;8.90;7.00;;;;;;;20.45;86.61;100421.50;84670;1330;22584;-70
2022/08/29 07:19:30;;;;;;;8.60;7.80;;;;;;;20.44;86.74;100422.64;84786;1329;22566;-70
2022/08/29 07:21:45;;;;;;;9.50;8.20;;;;;;;20.48;86.86;100419.86;84837;1327;22605;-72
2022/08/29 07:23:54;;;;;;;10.20;7.90;;;;;;;20.53;87.10;100423.52;84800;1326;24255;-68
2022/08/29 07:26:17;;;;;;;10.30;8.50;;;;;;;20.61;87.13;100427.56;84790;1325;22593;-69
2022/08/29 07:28:33;;;;;;;10.10;9.00;;;;;;;20.69;86.84;100428.55;84779;1327;22643;-71
2022/08/29 07:30:45;;;;;;;9.90;7.20;;;;;;;20.73;86.72;100432.48;84678;1328;23949;-71
2022/08/29 07:32:55;;;;;;;9.20;7.40;;;;;;;20.76;86.45;100434.89;84770;1327;25318;-69
2022/08/29 07:35:04;;;;;;;10.90;8.40;;;;;;;20.75;85.91;100435.86;84785;1326;22603;-70
2022/08/29 07:37:32;;;;;;;9.10;8.00;;;;;;;20.71;85.70;100441.52;84808;1327;22620;-71
2022/08/29 07:39:41;;;;;;;10.00;7.20;;;;;;;20.70;85.46;100442.23;84776;1327;22612;-70
2022/08/29 07:41:50;;;;;;;7.80;6.90;;;;;;;20.73;85.08;100448.39;84762;1327;22589;-70
2022/08/29 07:44:00;;;;;;;9.50;6.80;;;;;;;20.78;84.70;100454.95;84769;1322;22603;-70
2022/08/29 07:46:11;;;;;;;7.30;6.10;;;;;;;20.85;84.70;100457.89;84765;1328;22672;-70
2022/08/29 07:48:21;;;;;;;7.30;6.50;;;;;;;21.08;85.39;100458.91;84753;1327;22608;-70
2022/08/29 07:50:35;;;;;;;6.80;6.20;;;;;;;21.43;85.87;100461.91;84695;1331;23915;-72
2022/08/29 07:52:46;;;;;;;6.00;5.40;;;;;;;21.92;85.44;100461.92;84630;1330;22603;-72
2022/08/29 07:54:58;;;;;;;6.40;5.80;;;;;;;22.31;84.05;100462.91;84784;1327;24943;-70
2022/08/29 07:57:09;;;;;;;6.70;5.50;;;;;;;22.83;82.85;100461.10;84748;1327;22611;-70
2022/08/29 07:59:19;;;;;;;6.90;5.20;;;;;;;23.57;81.47;100463.73;84730;1327;24119;-71
2022/08/29 08:01:29;;;;;;;;;;;;;;;24.29;80.81;100457.13;84766;1324;22594;-70
2022/08/29 08:03:43;;;;;;;7.90;4.90;;;;;;;24.93;76.60;100460.42;84754;1322;22766;-72
2022/08/29 08:05:52;;;;;;;9.10;5.70;;;;;;;25.40;73.40;100459.77;84759;1327;22844;-70
2022/08/29 08:08:02;;;;;;;5.40;4.90;;;;;;;25.51;72.15;100458.48;84775;1321;22883;-69
2022/08/29 08:10:15;;;;;;;6.00;4.60;;;;;;;25.42;68.87;100457.66;84785;1325;22587;-73
2022/08/29 08:12:27;;;;;;;7.00;5.20;;;;;;;25.23;68.84;100460.51;84783;1327;25325;-72
2022/08/29 08:14:36;;;;;;;5.10;4.40;;;;;;;25.03;68.35;100464.25;84779;1327;22587;-71
2022/08/29 08:16:45;;;;;;;7.90;5.00;;;;;;;24.82;67.81;100466.00;84744;1327;22802;-71
2022/08/29 08:18:59;;;;;;;7.80;4.60;;;;;;;24.55;66.89;100468.70;84763;1328;24101;-71
2022/08/29 08:21:08;;;;;;;5.60;5.00;;;;;;;24.22;67.05;100472.89;84752;1328;22597;-71
2022/08/29 08:23:19;;;;;;;5.80;4.70;;;;;;;23.98;67.96;100480.86;84756;1323;22792;-72
2022/08/29 08:25:29;;;;;;;5.70;5.00;;;;;;;23.76;67.84;100485.31;84761;1327;23949;-71
2022/08/29 08:27:39;;;;;;;7.40;4.80;;;;;;;23.54;68.10;100493.70;84740;1327;23809;-71
2022/08/29 08:29:48;;;;;;;6.60;4.90;;;;;;;23.34;68.22;100486.30;84788;1327;24299;-69
2022/08/29 08:32:02;;;;;;;7.10;5.60;;;;;;;23.16;68.93;100485.92;84728;1328;22588;-69
2022/08/29 08:34:14;;;;;;;8.10;5.30;;;;;;;23.10;69.25;100492.17;84739;1327;22732;-71
2022/08/29 08:36:25;;;;;;;8.10;4.90;;;;;;;23.11;69.94;100492.96;84761;1327;24242;-71
2022/08/29 08:38:37;;;;;;;10.00;5.50;;;;;;;23.18;69.94;100489.52;84779;1327;22586;-70
2022/08/29 08:40:46;;;;;;;;;;;;;;;23.27;69.96;100491.02;84690;1327;25263;-71
2022/08/29 08:42:59;;;;;;;;;;;;;;;23.28;69.54;100491.77;84713;1328;24025;-71
2022/08/29 08:45:12;;;;;;;7.30;4.10;;;;;;;23.22;69.19;100492.90;84770;1327;22607;-69
2022/08/29 08:47:27;;;;;;;5.80;4.40;;;;;;;23.16;69.43;100492.35;84776;1327;22581;-69
2022/08/29 08:49:42;;;;;;;11.80;4.80;;;;;;;23.06;69.34;100493.23;84686;1330;23104;-71
2022/08/29 08:51:52;;;;;;;5.00;4.00;;;;;;;23.01;69.80;100497.25;84771;1327;22662;-72
2022/08/29 08:54:02;;;;;;;7.80;5.10;;;;;;;23.01;69.81;100499.02;84771;1327;22671;-71
2022/08/29 08:56:16;;;;;;;;;;;;;;;23.08;69.64;100494.97;84761;1326;25435;-71
2022/08/29 08:58:36;;;;;;;6.90;5.60;;;;;;;23.36;70.33;100499.09;84779;1327;24081;-72
2022/08/29 09:00:49;;;;;;;7.00;5.60;;;;;;;23.84;70.06;100500.13;84757;1327;22584;-70
2022/08/29 09:03:07;;;;;;;6.10;5.40;;;;;;;24.12;68.30;100498.23;84748;1327;22607;-70
2022/08/29 09:05:31;;;;;;;6.90;5.10;;;;;;;24.40;68.49;100497.23;84752;1325;22587;-70
2022/08/29 09:07:53;;;;;;;6.90;4.80;;;;;;;25.39;67.33;100493.60;84756;1329;22600;-71
2022/08/29 09:10:14;;;;;;;7.20;4.90;;;;;;;26.39;63.99;100493.19;84790;1325;22869;-71
2022/08/29 09:12:38;;;;;;;16.40;6.30;;;;;;;27.25;61.73;100495.52;84749;1327;22596;-72
2022/08/29 09:15:03;;;;;;;7.60;4.70;;;;;;;27.64;59.46;100498.88;84743;1328;24391;-68
2022/08/29 09:17:20;;;;;;;7.20;4.00;;;;;;;27.59;57.79;100503.77;84737;1327;22588;-70
2022/08/29 09:19:32;;;;;;;6.50;4.20;;;;;;;27.48;56.93;100500.63;84566;1330;22706;-70
2022/08/29 09:21:48;;;;;;;4.90;4.40;;;;;;;27.27;56.45;100499.59;84742;1327;22588;-68
2022/08/29 09:23:59;;;;;;;5.00;4.00;;;;;;;27.09;55.81;100500.15;84743;1327;22578;-70
2022/08/29 09:26:11;;;;;;;6.90;4.30;;;;;;;27.34;56.24;100501.35;84770;1327;22661;-70
2022/08/29 09:28:23;;;;;;;5.90;4.80;;;;;;;27.36;55.68;100500.09;84743;1325;22645;-70
2022/08/29 09:30:33;;;;;;;6.30;4.90;;;;;;;27.33;55.59;100505.48;84694;1327;25269;-70
2022/08/29 09:33:01;;;;;;;7.40;5.50;;;;;;;27.46;55.95;100505.09;84690;1330;22588;-70
2022/08/29 09:35:27;;;;;;;5.80;4.80;;;;;;;27.43;54.82;100508.19;84741;1326;22710;-70
2022/08/29 09:37:38;;;;;;;6.00;5.00;;;;;;;27.22;54.34;100505.05;84764;1326;22692;-73
2022/08/29 09:39:57;;;;;;;6.60;4.30;;;;;;;26.96;54.22;100504.73;84767;1327;23816;-73
2022/08/29 09:42:24;;;;;;;6.70;4.80;;;;;;;26.68;54.15;100505.30;84775;1327;22682;-69
2022/08/29 09:44:37;;;;;;;11.40;5.00;;;;;;;26.39;53.62;100507.08;84796;1327;22580;-70
2022/08/29 09:47:00;;;;;;;5.10;4.20;;;;;;;26.12;54.28;100509.55;84767;1327;22597;-71
2022/08/29 09:49:17;;;;;;;5.50;5.00;;;;;;;25.82;53.98;100509.05;84767;1327;22577;-71
2022/08/29 09:51:32;;;;;;;5.30;4.80;;;;;;;25.48;54.52;100514.86;84792;1327;22593;-70
2022/08/29 09:53:41;;;;;;;7.60;4.80;;;;;;;25.22;55.11;100514.73;84755;1327;22633;-70
2022/08/29 09:55:50;;;;;;;6.10;4.30;;;;;;;25.20;55.76;100512.95;84779;1326;22842;-70
2022/08/29 09:58:03;;;;;;;9.40;6.20;;;;;;;25.39;56.55;100510.77;84789;1327;22617;-70
2022/08/29 10:00:19;;;;;;;5.60;4.60;;;;;;;25.77;57.24;100507.39;84762;1326;22584;-70
2022/08/29 10:02:36;;;;;;;4.90;4.20;;;;;;;26.14;56.37;100503.98;84694;1328;22598;-70
2022/08/29 10:04:48;;;;;;;6.00;4.90;;;;;;;26.34;55.00;100502.51;84749;1327;24116;-69
2022/08/29 10:07:07;;;;;;;6.60;4.20;;;;;;;26.36;54.36;100501.98;84746;1327;22603;-68
2022/08/29 10:09:30;;;;;;;6.30;4.10;;;;;;;26.42;53.72;100503.80;84760;1326;22591;-68
2022/08/29 10:11:43;;;;;;;7.30;3.80;;;;;;;26.56;53.87;100503.98;84764;1326;25281;-70
2022/08/29 10:13:55;;;;;;;5.50;3.60;;;;;;;26.83;53.94;100501.52;84759;1326;22603;-72